»·PEaware :: N24DF KMFR-KOTH

N24DF :: KMFR-KOTH

FLIGHT INFORMATION

Flight Status: Arrived
Operator: Privately registered:
United States
More flights under this callsign
Pilot: David F. (17152)
Aircraft: CESSNA 172 SKYHAWK
(C172)
More flights by this aircraft type
Origin: KMFR Rogue Valley Intl-Medford
United States
Destination: KOTH North Bend Mun
United States
More flights between these airports :: More routes between these airports
Route: +JKSN1 OED V287 OTH
File this flight plan on PilotEdge
Remarks: none
Altitude:
(Current/Filed)
8,000ft
Speed:
(Current/Filed)
115kts
Departed: 11-Nov-18 11:08 AM
Arrived: 11-Nov-18 12:10 PM
Distance/Time
Traveled:
87nm/1:02
Distance/Time
To Go:
Arrived

Flight Plot

Page will automatically refresh every two minutes.

Flight plan parsing failed; only flown route is shown


Map Options




Map Legend


Flown Route
Filed Route
Departure Airport
Arrival Airport
Navaid (VOR, NDB)
Fix

Horizontal Profiles

Position Reports

Time Latitude Longitude Heading Altitude Ground
Speed
11-Nov-18 10:42 42.372299 -122.877591 204 1310ft 0kts
11-Nov-18 10:43 42.372299 -122.877591 204 1310ft 0kts
11-Nov-18 10:44 42.372299 -122.877591 204 1310ft 0kts
11-Nov-18 10:45 42.372299 -122.877591 204 1310ft 0kts
11-Nov-18 10:46 42.372299 -122.877591 204 1310ft 0kts
11-Nov-18 10:47 42.372299 -122.877591 204 1310ft 0kts
11-Nov-18 10:48 42.372299 -122.877591 204 1310ft 0kts
11-Nov-18 10:49 42.372299 -122.877591 204 1310ft 0kts
11-Nov-18 10:50 42.372299 -122.877591 204 1310ft 0kts
11-Nov-18 10:51 42.372299 -122.877591 204 1310ft 0kts
11-Nov-18 10:52 42.372299 -122.877591 204 1310ft 0kts
11-Nov-18 10:53 42.372299 -122.877591 204 1310ft 0kts
11-Nov-18 10:54 42.372299 -122.877591 204 1310ft 0kts
11-Nov-18 10:55 42.372299 -122.877591 204 1310ft 0kts
11-Nov-18 10:56 42.372299 -122.877591 204 1310ft 0kts
11-Nov-18 10:57 42.372299 -122.877591 204 1310ft 0kts
11-Nov-18 10:58 42.372299 -122.877591 204 1310ft 0kts
11-Nov-18 10:59 42.372410 -122.877762 344 1310ft 4kts
11-Nov-18 11:00 42.372922 -122.876572 115 1310ft 8kts
11-Nov-18 11:01 42.374027 -122.875285 359 1310ft 7kts
11-Nov-18 11:02 42.376418 -122.875646 336 1307ft 11kts
11-Nov-18 11:03 42.379485 -122.877246 337 1304ft 12kts
11-Nov-18 11:04 42.382547 -122.878859 339 1301ft 12kts
11-Nov-18 11:05 42.385641 -122.880487 355 1295ft 5kts
11-Nov-18 11:06 42.385796 -122.880344 65 1296ft 0kts
11-Nov-18 11:07 42.385796 -122.880344 65 1296ft 0kts
11-Nov-18 11:08 42.385796 -122.880344 65 1296ft 0kts
11-Nov-18 11:09 42.385796 -122.880344 65 1296ft 0kts
11-Nov-18 11:10 42.385782 -122.878924 155 1298ft 9kts
11-Nov-18 11:11 42.369542 -122.870272 152 1933ft 75kts
11-Nov-18 11:12 42.369440 -122.883151 344 2908ft 78kts
11-Nov-18 11:13 42.390807 -122.894288 336 3857ft 84kts
11-Nov-18 11:14 42.412845 -122.905321 344 4695ft 91kts
11-Nov-18 11:15 42.435924 -122.920175 341 5518ft 87kts
11-Nov-18 11:16 42.457953 -122.918732 10 6403ft 76kts
11-Nov-18 11:17 42.477230 -122.920252 4 7288ft 63kts
11-Nov-18 11:18 42.492959 -122.931399 324 8012ft 73kts
11-Nov-18 11:19 42.510206 -122.953733 322 8519ft 95kts
11-Nov-18 11:20 42.529753 -122.979344 322 9018ft 99kts
11-Nov-18 11:21 42.549475 -123.005273 323 9514ft 98kts
11-Nov-18 11:22 42.569036 -123.031011 323 9984ft 99kts
11-Nov-18 11:23 42.591315 -123.060258 322 9999ft 117kts
11-Nov-18 11:24 42.614996 -123.091510 322 9999ft 119kts
11-Nov-18 11:25 42.638701 -123.122816 322 9999ft 118kts
11-Nov-18 11:26 42.662175 -123.153870 322 10000ft 117kts
11-Nov-18 11:27 42.685645 -123.184923 322 10002ft 117kts
11-Nov-18 11:28 42.709062 -123.215936 321 10005ft 117kts
11-Nov-18 11:29 42.732303 -123.246789 321 10007ft 117kts
11-Nov-18 11:30 42.755595 -123.277755 321 10003ft 117kts
11-Nov-18 11:31 42.778775 -123.308803 321 10005ft 116kts
11-Nov-18 11:32 42.801874 -123.339649 321 10007ft 116kts
11-Nov-18 11:33 42.824971 -123.370478 321 10008ft 116kts
11-Nov-18 11:34 42.848005 -123.401230 321 10008ft 116kts
11-Nov-18 11:35 42.871110 -123.432081 321 10008ft 116kts
11-Nov-18 11:36 42.894193 -123.462927 321 10008ft 116kts
11-Nov-18 11:37 42.917200 -123.493678 321 10007ft 115kts
11-Nov-18 11:38 42.940021 -123.524245 322 10007ft 115kts
11-Nov-18 11:39 42.962778 -123.554799 322 10007ft 114kts
11-Nov-18 11:40 42.985357 -123.585230 322 10007ft 114kts
11-Nov-18 11:41 43.004181 -123.610624 322 10007ft 113kts
11-Nov-18 11:42 43.026343 -123.641093 322 10006ft 113kts
11-Nov-18 11:43 43.047425 -123.673086 300 10005ft 119kts
11-Nov-18 11:44 43.057204 -123.717625 293 9483ft 122kts
11-Nov-18 11:45 43.068566 -123.769280 293 8762ft 122kts
11-Nov-18 11:46 43.076911 -123.806200 293 8247ft 122kts
11-Nov-18 11:47 43.087138 -123.850594 293 7631ft 123kts
11-Nov-18 11:48 43.095403 -123.896811 289 6995ft 127kts
11-Nov-18 11:49 43.104247 -123.944208 290 6291ft 130kts
11-Nov-18 11:50 43.113412 -123.992670 289 5597ft 133kts
11-Nov-18 11:51 43.122557 -124.041196 289 5118ft 122kts
11-Nov-18 11:52 43.131417 -124.088335 289 5109ft 134kts
11-Nov-18 11:53 43.140781 -124.138215 289 5109ft 135kts
11-Nov-18 11:54 43.148996 -124.188673 277 5110ft 137kts
11-Nov-18 11:55 43.153655 -124.239266 285 4626ft 127kts
11-Nov-18 11:56 43.162458 -124.284818 293 4061ft 121kts
11-Nov-18 11:57 43.174955 -124.327186 300 3468ft 120kts
11-Nov-18 11:58 43.191314 -124.367328 308 2873ft 120kts
11-Nov-18 11:59 43.210967 -124.403959 315 2324ft 115kts
11-Nov-18 12:00 43.233337 -124.436558 322 2309ft 118kts
11-Nov-18 12:01 43.258552 -124.465338 330 2309ft 117kts
11-Nov-18 12:02 43.285998 -124.489350 337 2309ft 116kts
11-Nov-18 12:03 43.314532 -124.504907 22 2301ft 96kts
11-Nov-18 12:04 43.325310 -124.478120 63 2310ft 79kts
11-Nov-18 12:05 43.336134 -124.452149 62 2310ft 80kts
11-Nov-18 12:06 43.348157 -124.422989 62 2309ft 90kts
11-Nov-18 12:07 43.360734 -124.392640 61 2286ft 81kts
11-Nov-18 12:08 43.370291 -124.368629 65 1851ft 71kts
11-Nov-18 12:09 43.379907 -124.344953 61 1427ft 71kts
11-Nov-18 12:10 43.389681 -124.321494 63 1065ft 70kts
11-Nov-18 12:11 43.399547 -124.297949 64 655ft 72kts
11-Nov-18 12:12 43.408346 -124.276540 62 306ft 60kts
11-Nov-18 12:13 43.415738 -124.258151 68 19ft 40kts
11-Nov-18 12:14 43.418256 -124.251811 94 20ft 14kts
11-Nov-18 12:15 43.417535 -124.250916 99 25ft 0kts
11-Nov-18 12:16 43.418322 -124.248747 60 23ft 10kts
11-Nov-18 12:17 43.417800 -124.246482 241 22ft 8kts
11-Nov-18 12:18 43.415735 -124.245692 150 25ft 13kts
11-Nov-18 12:19 43.414804 -124.244716 72 23ft 0kts

Navigation Log

Ident Type
Flight plan parsing failed, navigation log unavailable